Terminal Aerodrome Forecast
Issued by NWS

Home | Current Version | Previous Version | Text Only | Print | Product List | Glossary On
Versions: 1 2 3 4 5 6 7 8 9 10 11 12 13 14 15 16 17 18 19 20 21 22 23 24 25 26 27 28 29 30 31 32 33 34 35 36 37 38 39 40 41 42
000
FTUS43 KGRB 210500
TAFRHI
TAF
KRHI 210520Z 2106/2206 15004KT 6SM BR OVC010
     FM211600 15008KT 4SM -FZDZSN BR OVC009
     FM212000 15009KT 3SM -SN BR OVC007
     FM220100 16009KT 2SM -SN BR OVC005=

USA.gov is the U.S. government's official web portal to all federal, state and local government web resources and services.